createdAt,value
2019-05-11T00:00:58.038Z,9.15
2019-05-11T00:03:26.457Z,9.55
2019-05-11T00:05:54.917Z,9.20
2019-05-11T00:08:23.384Z,9.43
2019-05-11T00:10:51.810Z,8.73
2019-05-11T00:13:20.256Z,9.28
2019-05-11T00:15:48.694Z,8.60
2019-05-11T00:18:17.143Z,8.38
2019-05-11T00:20:45.588Z,8.65
2019-05-11T00:23:14.013Z,8.25
2019-05-11T00:25:42.449Z,8.88
2019-05-11T00:28:10.942Z,8.15
2019-05-11T00:30:58.716Z,8.60
2019-05-11T00:33:27.180Z,8.45
2019-05-11T00:35:55.613Z,8.28
2019-05-11T00:38:24.065Z,8.83
2019-05-11T00:40:52.499Z,8.65
2019-05-11T00:43:20.929Z,8.38
2019-05-11T00:45:49.473Z,8.55
2019-05-11T00:48:17.964Z,8.78
2019-05-11T00:50:46.439Z,8.33
2019-05-11T00:53:14.860Z,8.48
2019-05-11T00:55:43.312Z,8.90
2019-05-11T00:58:11.745Z,9.13
2019-05-11T01:00:40.198Z,8.78
2019-05-11T01:03:08.620Z,8.63
2019-05-11T01:05:37.068Z,8.78
2019-05-11T01:08:05.605Z,8.98
2019-05-11T01:10:42.208Z,9.35
2019-05-11T01:13:04.130Z,7.35
2019-05-11T01:15:32.564Z,8.30
2019-05-11T01:18:01.010Z,8.28
2019-05-11T01:20:29.448Z,7.83
2019-05-11T01:22:57.895Z,8.85
2019-05-11T01:25:26.338Z,7.72
2019-05-11T01:27:54.783Z,8.08
2019-05-11T01:30:23.204Z,7.55
2019-05-11T01:32:51.657Z,7.40
2019-05-11T01:35:20.088Z,7.12
2019-05-11T01:37:48.525Z,7.10
2019-05-11T01:40:16.978Z,7.20
2019-05-11T01:42:45.388Z,7.83
2019-05-11T01:45:13.832Z,8.03
2019-05-11T01:47:42.252Z,7.05
2019-05-11T01:50:10.709Z,7.17
2019-05-11T01:52:39.146Z,7.33
2019-05-11T01:55:07.572Z,6.72
2019-05-11T01:57:35.996Z,6.92
2019-05-11T02:00:07.537Z,6.47
2019-05-11T02:02:35.964Z,6.78
2019-05-11T02:05:23.424Z,6.97
2019-05-11T02:07:51.862Z,7.10
2019-05-11T02:10:20.300Z,6.78
2019-05-11T02:12:48.733Z,6.22
2019-05-11T02:15:17.164Z,7.30
2019-05-11T02:17:45.612Z,7.10
2019-05-11T02:20:14.029Z,13.35
2019-05-11T02:22:42.484Z,6.78
2019-05-11T02:25:10.908Z,7.20
2019-05-11T02:27:39.375Z,6.55
2019-05-11T02:30:07.782Z,7.10
2019-05-11T02:32:36.222Z,7.40
2019-05-11T02:35:07.386Z,6.50
2019-05-11T02:37:35.935Z,6.70
2019-05-11T02:40:04.993Z,6.80
2019-05-11T02:42:33.452Z,7.33
2019-05-11T02:45:01.900Z,6.80
2019-05-11T02:47:30.352Z,7.25
2019-05-11T02:49:58.814Z,7.75
2019-05-11T02:52:27.724Z,6.87
2019-05-11T02:54:56.187Z,7.53
2019-05-11T02:57:24.620Z,7.67
2019-05-11T02:59:53.060Z,7.08
2019-05-11T03:02:21.489Z,7.05
2019-05-11T03:04:49.926Z,7.67
2019-05-11T03:07:18.363Z,8.08
2019-05-11T03:09:46.819Z,6.83
2019-05-11T03:12:15.237Z,7.72
2019-05-11T03:14:43.699Z,7.62
2019-05-11T03:17:13.699Z,8.00
2019-05-11T03:19:42.153Z,8.00
2019-05-11T03:22:29.913Z,7.70
2019-05-11T03:24:58.349Z,8.33
2019-05-11T03:27:26.776Z,8.25
2019-05-11T03:29:59.768Z,8.33
2019-05-11T03:32:25.273Z,9.10
2019-05-11T03:34:53.688Z,8.95
2019-05-11T03:37:22.129Z,8.50
2019-05-11T03:39:50.550Z,8.30
2019-05-11T03:42:18.994Z,8.78
2019-05-11T03:44:47.416Z,9.73
2019-05-11T03:47:15.857Z,9.43
2019-05-11T03:49:44.286Z,8.68
2019-05-11T03:52:12.726Z,8.95
2019-05-11T03:54:41.155Z,9.03
2019-05-11T03:57:09.585Z,9.13
2019-05-11T03:59:38.021Z,9.33
2019-05-11T04:02:06.473Z,9.10
2019-05-11T04:04:34.920Z,9.23
2019-05-11T04:07:03.350Z,9.08
2019-05-11T04:09:31.782Z,8.83
2019-05-11T04:12:00.206Z,9.53
2019-05-11T04:14:28.655Z,9.95
2019-05-11T04:16:57.068Z,9.55
2019-05-11T04:19:25.505Z,9.43
2019-05-11T04:21:53.913Z,9.08
2019-05-11T04:24:22.351Z,9.23
2019-05-11T04:26:50.784Z,9.25
2019-05-11T04:29:19.215Z,9.90
2019-05-11T04:31:47.634Z,9.10
2019-05-11T04:34:35.497Z,9.73
2019-05-11T04:37:03.910Z,10.20
2019-05-11T04:39:32.342Z,9.40
2019-05-11T04:42:00.762Z,9.85
2019-05-11T04:44:29.206Z,10.43
2019-05-11T04:46:57.653Z,9.93
2019-05-11T04:49:26.096Z,9.65
2019-05-11T04:51:54.542Z,10.30
2019-05-11T04:54:22.961Z,10.10
2019-05-11T04:56:51.401Z,9.65
2019-05-11T04:59:19.811Z,9.95
2019-05-11T05:01:48.300Z,10.55
2019-05-11T05:04:16.770Z,10.38
2019-05-11T05:06:58.914Z,9.95
2019-05-11T05:09:15.357Z,8.73
2019-05-11T05:11:43.783Z,7.90
2019-05-11T05:14:12.221Z,8.20
2019-05-11T05:16:40.651Z,8.33
2019-05-11T05:19:09.131Z,7.80
2019-05-11T05:21:37.574Z,9.15
2019-05-11T05:24:06.002Z,7.85
2019-05-11T05:26:34.432Z,8.35
2019-05-11T05:29:02.920Z,8.45
2019-05-11T05:31:31.349Z,8.88
2019-05-11T05:34:01.483Z,8.63
2019-05-11T05:36:30.037Z,9.08
2019-05-11T05:38:58.493Z,8.80
2019-05-11T05:41:26.916Z,9.60
2019-05-11T05:43:55.360Z,8.93
2019-05-11T05:46:24.536Z,9.53
2019-05-11T05:48:52.948Z,8.98
2019-05-11T05:51:21.383Z,8.70
2019-05-11T05:53:49.801Z,8.75
2019-05-11T05:56:18.246Z,9.40
2019-05-11T05:58:46.660Z,9.38
2019-05-11T06:01:15.091Z,9.20
2019-05-11T06:03:43.516Z,9.88
2019-05-11T06:06:11.960Z,9.63
2019-05-11T06:08:43.150Z,9.80
2019-05-11T06:11:10.447Z,9.57
2019-05-11T06:13:45.186Z,9.45
2019-05-11T06:16:08.972Z,9.05
2019-05-11T06:18:37.408Z,9.95
2019-05-11T06:21:05.829Z,9.15
2019-05-11T06:23:34.261Z,9.63
2019-05-11T06:26:02.672Z,9.53
2019-05-11T06:28:31.111Z,9.55
2019-05-11T06:30:59.524Z,9.03
2019-05-11T06:33:27.964Z,21.57
2019-05-11T06:35:56.379Z,24.60
2019-05-11T06:38:24.836Z,22.48
2019-05-11T06:40:53.282Z,17.20
2019-05-11T06:43:21.700Z,15.55
2019-05-11T06:45:50.151Z,13.72
2019-05-11T06:48:18.592Z,13.05
2019-05-11T06:50:47.030Z,12.23
2019-05-11T06:53:15.472Z,12.73
2019-05-11T06:55:43.919Z,11.90
2019-05-11T06:58:12.368Z,11.88
2019-05-11T07:00:40.830Z,12.03
2019-05-11T07:03:09.253Z,11.48
2019-05-11T07:05:37.716Z,11.45
2019-05-11T07:08:06.133Z,11.83
2019-05-11T07:10:34.610Z,11.28
2019-05-11T07:13:03.041Z,11.95
2019-05-11T07:15:31.485Z,12.35
2019-05-11T07:17:59.971Z,11.63
2019-05-11T07:20:28.383Z,12.07
2019-05-11T07:22:56.851Z,10.40
2019-05-11T07:25:25.290Z,10.88
2019-05-11T07:27:53.753Z,10.90
2019-05-11T07:30:22.172Z,10.50
2019-05-11T07:32:50.632Z,10.65
2019-05-11T07:35:19.061Z,10.63
2019-05-11T07:37:48.016Z,9.98
2019-05-11T07:40:18.753Z,10.40
2019-05-11T07:42:48.563Z,9.58
2019-05-11T07:45:18.032Z,9.93
2019-05-11T07:47:48.546Z,10.78
2019-05-11T07:50:18.105Z,9.60
2019-05-11T07:52:48.350Z,9.08
2019-05-11T07:55:38.474Z,9.30
2019-05-11T07:58:08.018Z,8.95
2019-05-11T08:00:39.792Z,9.03
2019-05-11T08:03:08.856Z,8.25
2019-05-11T08:05:38.542Z,7.95
2019-05-11T08:08:08.696Z,8.83
2019-05-11T08:10:39.007Z,7.47
2019-05-11T08:13:09.127Z,6.53
2019-05-11T08:15:38.278Z,6.62
2019-05-11T08:18:08.524Z,6.53
2019-05-11T08:20:38.497Z,7.75
2019-05-11T08:23:28.581Z,7.08
2019-05-11T08:25:58.084Z,7.03
2019-05-11T08:28:28.713Z,7.40
2019-05-11T08:30:57.881Z,7.15
2019-05-11T08:33:28.433Z,6.57
2019-05-11T08:35:58.244Z,6.75
2019-05-11T08:38:28.557Z,6.55
2019-05-11T08:40:59.042Z,6.22
2019-05-11T08:43:28.515Z,6.40
2019-05-11T08:45:57.849Z,5.63
2019-05-11T08:48:28.307Z,5.30
2019-05-11T08:50:58.193Z,6.72
2019-05-11T08:53:28.382Z,4.95
2019-05-11T08:55:58.835Z,4.90
2019-05-11T08:58:27.774Z,4.92
2019-05-11T09:00:58.320Z,5.10
2019-05-11T09:03:28.424Z,5.08
2019-05-11T09:05:57.911Z,5.62
2019-05-11T09:08:28.291Z,4.95
2019-05-11T09:10:58.242Z,5.90
2019-05-11T09:13:27.885Z,5.80
2019-05-11T09:15:58.775Z,5.47
2019-05-11T09:18:27.959Z,5.37
2019-05-11T09:20:57.703Z,5.87
2019-05-11T09:23:34.581Z,5.47
2019-05-11T09:25:58.394Z,6.08
2019-05-11T09:28:29.305Z,5.55
2019-05-11T09:30:57.764Z,5.42
2019-05-11T09:33:28.329Z,5.40
2019-05-11T09:35:58.390Z,5.33
2019-05-11T09:38:27.771Z,5.17
2019-05-11T09:40:58.556Z,4.60
2019-05-11T09:43:28.384Z,5.60
2019-05-11T09:45:58.279Z,5.78
2019-05-11T09:48:28.413Z,6.15
2019-05-11T09:51:22.332Z,5.20
2019-05-11T09:53:50.768Z,8.95
2019-05-11T09:56:19.255Z,12.45
2019-05-11T09:58:48.172Z,14.45
2019-05-11T10:01:18.301Z,14.85
2019-05-11T10:03:48.229Z,15.45
2019-05-11T10:06:18.985Z,14.05
2019-05-11T10:08:48.736Z,12.43
2019-05-11T10:11:18.983Z,12.10
2019-05-11T10:13:47.757Z,11.95
2019-05-11T10:16:17.838Z,12.30
2019-05-11T10:18:49.028Z,12.90
2019-05-11T10:21:18.815Z,12.78
2019-05-11T10:23:49.039Z,13.22
2019-05-11T10:26:18.796Z,13.93
2019-05-11T10:28:48.166Z,14.20
2019-05-11T10:31:18.075Z,14.33
2019-05-11T10:33:48.925Z,14.33
2019-05-11T10:36:18.837Z,15.35
2019-05-11T10:38:48.721Z,15.32
2019-05-11T10:41:18.071Z,14.87
2019-05-11T10:43:48.901Z,14.18
2019-05-11T10:46:22.463Z,15.18
2019-05-11T10:48:48.294Z,14.68
2019-05-11T10:51:18.420Z,14.03
2019-05-11T10:53:51.637Z,14.13
2019-05-11T10:56:17.825Z,13.32
2019-05-11T10:58:48.200Z,14.05
2019-05-11T11:01:18.159Z,13.68
2019-05-11T11:03:48.324Z,12.45
2019-05-11T11:06:18.834Z,12.45
2019-05-11T11:08:48.641Z,12.07
2019-05-11T11:11:18.567Z,14.60
2019-05-11T11:13:48.083Z,12.27
2019-05-11T11:16:32.668Z,11.40
2019-05-11T11:18:48.672Z,10.10
2019-05-11T11:21:22.104Z,10.48
2019-05-11T11:23:48.033Z,9.95
2019-05-11T11:26:18.406Z,10.28
2019-05-11T11:28:47.826Z,9.95
2019-05-11T11:31:18.709Z,10.75
2019-05-11T11:33:48.634Z,9.78
2019-05-11T11:36:17.913Z,9.65
2019-05-11T11:38:47.839Z,9.25
2019-05-11T11:41:18.620Z,9.45
2019-05-11T11:43:48.298Z,9.73
2019-05-11T11:46:18.746Z,10.48
2019-05-11T11:48:48.909Z,10.05
2019-05-11T11:51:18.756Z,9.10
2019-05-11T11:53:47.941Z,10.85
2019-05-11T11:56:38.011Z,8.95
2019-05-11T11:59:08.322Z,9.73
2019-05-11T12:01:38.481Z,8.83
2019-05-11T12:04:08.284Z,8.80
2019-05-11T12:06:38.407Z,10.63
2019-05-11T12:09:08.764Z,9.20
2019-05-11T12:11:38.113Z,10.25
2019-05-11T12:14:08.749Z,10.63
2019-05-11T12:16:38.804Z,10.63
2019-05-11T12:19:08.423Z,10.85
2019-05-11T12:21:37.940Z,11.15
2019-05-11T12:24:08.130Z,10.38
2019-05-11T12:26:38.907Z,10.68
2019-05-11T12:29:08.124Z,10.67
2019-05-11T12:31:37.942Z,9.88
2019-05-11T12:34:08.786Z,11.25
2019-05-11T12:36:38.660Z,11.33
2019-05-11T12:39:08.496Z,11.65
2019-05-11T12:41:38.738Z,10.53
2019-05-11T12:44:08.215Z,10.45
2019-05-11T12:46:39.372Z,10.98
2019-05-11T12:49:07.826Z,10.35
2019-05-11T12:51:38.315Z,10.63
2019-05-11T12:54:08.261Z,10.35
2019-05-11T12:56:38.351Z,9.75
2019-05-11T12:59:08.246Z,9.33
2019-05-11T13:01:38.102Z,9.53
2019-05-11T13:04:08.910Z,9.83
2019-05-11T13:06:50.436Z,10.48
2019-05-11T13:09:18.890Z,8.60
2019-05-11T13:11:48.244Z,8.78
2019-05-11T13:14:20.486Z,9.00
2019-05-11T13:16:49.938Z,9.28
2019-05-11T13:19:19.018Z,9.00
2019-05-11T13:21:48.642Z,8.45
2019-05-11T13:24:18.706Z,8.28
2019-05-11T13:26:48.542Z,8.73
2019-05-11T13:29:18.134Z,9.08
2019-05-11T13:31:48.581Z,9.53
2019-05-11T13:34:18.504Z,9.68
2019-05-11T13:36:48.964Z,8.08
2019-05-11T13:39:18.091Z,8.40
2019-05-11T13:41:49.305Z,8.50
2019-05-11T13:44:18.728Z,8.85
2019-05-11T13:49:47.976Z,9.08
2019-05-11T13:52:18.114Z,9.75
2019-05-11T13:54:50.321Z,7.87
2019-05-11T13:57:21.444Z,9.18
2019-05-11T14:03:04.735Z,9.60
2019-05-11T14:05:48.586Z,10.90
2019-05-11T14:08:19.284Z,10.75
2019-05-11T14:10:54.632Z,10.03
2019-05-11T14:13:23.429Z,10.35
2019-05-11T14:15:54.390Z,10.10
2019-05-11T14:21:07.954Z,9.85
2019-05-11T14:23:38.651Z,9.13
2019-05-11T14:26:08.387Z,9.65
2019-05-11T14:28:37.580Z,10.15
2019-05-11T14:31:08.240Z,9.43
2019-05-11T14:33:38.384Z,10.23
2019-05-11T14:36:08.631Z,9.77
2019-05-11T14:38:38.081Z,10.38
2019-05-11T14:41:07.772Z,10.40
2019-05-11T14:43:38.168Z,10.53
2019-05-11T14:46:08.658Z,11.88
2019-05-11T14:48:38.934Z,11.33
2019-05-11T14:51:08.649Z,10.98
2019-05-11T14:53:37.964Z,11.18
2019-05-11T14:56:08.279Z,11.33
2019-05-11T14:58:38.686Z,11.05
2019-05-11T15:01:08.831Z,12.00
2019-05-11T15:03:38.087Z,11.20
2019-05-11T15:06:08.316Z,12.50
2019-05-11T15:08:38.837Z,13.43
2019-05-11T15:11:08.256Z,13.00
2019-05-11T15:13:38.211Z,12.75
2019-05-11T15:16:08.094Z,13.00
2019-05-11T15:18:41.428Z,13.57
2019-05-11T15:21:08.309Z,13.22
2019-05-11T15:23:37.829Z,12.73
2019-05-11T15:26:07.888Z,14.18
2019-05-11T15:28:37.937Z,14.25
2019-05-11T15:31:08.899Z,14.00
2019-05-11T15:33:38.274Z,13.95
2019-05-11T15:36:07.568Z,13.18
2019-05-11T15:38:37.850Z,14.50
2019-05-11T15:41:08.486Z,14.55
2019-05-11T15:43:38.743Z,14.07
2019-05-11T15:46:07.277Z,14.83
2019-05-11T15:48:52.893Z,14.07
2019-05-11T15:51:07.906Z,13.45
2019-05-11T15:53:37.111Z,14.18
2019-05-11T15:56:05.642Z,13.40
2019-05-11T15:58:37.664Z,13.95
2019-05-11T16:01:07.775Z,13.30
2019-05-11T16:03:35.880Z,14.18
2019-05-11T16:06:04.329Z,14.53
2019-05-11T16:08:32.788Z,13.60
2019-05-11T16:11:04.560Z,13.62
2019-05-11T16:13:32.979Z,14.23
2019-05-11T16:16:01.451Z,13.40
2019-05-11T16:18:29.874Z,14.28
2019-05-11T16:20:58.380Z,13.58
2019-05-11T16:23:28.412Z,13.48
2019-05-11T16:25:58.063Z,15.40
2019-05-11T16:28:30.607Z,15.05
2019-05-11T16:30:58.382Z,15.93
2019-05-11T16:33:26.911Z,15.07
2019-05-11T16:35:57.997Z,16.02
2019-05-11T16:38:25.473Z,16.55
2019-05-11T16:40:54.847Z,16.17
2019-05-11T16:43:23.283Z,17.02
2019-05-11T16:45:51.756Z,16.73
2019-05-11T16:48:20.213Z,17.30
2019-05-11T16:50:51.480Z,17.27
2019-05-11T16:53:19.999Z,19.62
2019-05-11T16:55:48.754Z,20.10
2019-05-11T16:58:19.929Z,19.87
2019-05-11T17:00:49.032Z,21.40
2019-05-11T17:03:17.939Z,22.35
2019-05-11T17:05:48.237Z,21.35
2019-05-11T17:08:18.520Z,22.95
2019-05-11T17:10:59.624Z,21.73
2019-05-11T17:13:28.294Z,21.73
2019-05-11T17:15:58.240Z,22.70
2019-05-11T17:18:28.416Z,23.27
2019-05-11T17:20:58.399Z,22.67
2019-05-11T17:23:30.540Z,22.20
2019-05-11T17:25:58.030Z,22.10
2019-05-11T17:28:26.903Z,21.93
2019-05-11T17:30:55.339Z,20.45
2019-05-11T17:33:23.818Z,21.15
2019-05-11T17:35:52.250Z,20.62
2019-05-11T17:38:20.719Z,20.20
2019-05-11T17:40:49.147Z,20.02
2019-05-11T17:43:18.139Z,19.85
2019-05-11T17:45:48.020Z,19.92
2019-05-11T17:48:17.916Z,19.45
2019-05-11T17:50:46.644Z,19.37
2019-05-11T17:53:18.290Z,19.70
2019-05-11T17:55:48.625Z,19.12
2019-05-11T17:58:18.525Z,19.27
2019-05-11T18:00:48.070Z,19.12
2019-05-11T18:03:16.762Z,18.20
2019-05-11T18:05:45.257Z,19.35
2019-05-11T18:08:13.660Z,18.17
2019-05-11T18:10:42.624Z,17.82
2019-05-11T18:13:11.062Z,17.07
2019-05-11T18:15:39.647Z,17.40
2019-05-11T18:18:09.398Z,17.87
2019-05-11T18:20:38.212Z,18.67
2019-05-11T18:23:08.240Z,15.75
2019-05-11T18:25:38.559Z,16.23
2019-05-11T18:28:07.046Z,17.60
2019-05-11T18:30:35.526Z,16.45
2019-05-11T18:33:04.040Z,16.17
2019-05-11T18:35:32.469Z,15.13
2019-05-11T18:38:01.125Z,16.42
2019-05-11T18:40:30.603Z,16.40
2019-05-11T18:42:59.039Z,15.30
2019-05-11T18:45:28.726Z,16.77
2019-05-11T18:47:57.514Z,15.57
2019-05-11T18:50:30.971Z,17.07
2019-05-11T18:52:58.042Z,16.57
2019-05-11T18:55:27.965Z,16.00
2019-05-11T18:57:58.057Z,17.73
2019-05-11T19:00:27.627Z,17.90
2019-05-11T19:02:58.008Z,17.50
2019-05-11T19:05:29.014Z,16.75
2019-05-11T19:07:58.423Z,16.00
2019-05-11T19:10:27.816Z,16.95
2019-05-11T19:12:58.747Z,17.42
2019-05-11T19:15:26.458Z,16.13
2019-05-11T19:17:54.973Z,18.35
2019-05-11T19:20:23.441Z,17.32
2019-05-11T19:22:51.994Z,17.65
2019-05-11T19:25:21.309Z,16.93
2019-05-11T19:27:50.728Z,16.80
2019-05-11T19:30:19.594Z,16.80
2019-05-11T19:32:48.750Z,17.67
2019-05-11T19:35:20.515Z,16.90
2019-05-11T19:37:48.740Z,17.80
2019-05-11T19:40:17.394Z,17.17
2019-05-11T19:42:55.466Z,19.70
2019-05-11T19:45:23.965Z,18.55
2019-05-11T19:47:52.519Z,20.40
2019-05-11T19:50:40.817Z,20.62
2019-05-11T19:53:09.682Z,19.32
2019-05-11T19:55:38.218Z,20.12
2019-05-11T19:58:06.680Z,20.25
2019-05-11T20:00:35.134Z,20.97
2019-05-11T20:03:03.561Z,21.62
2019-05-11T20:05:32.009Z,20.77
2019-05-11T20:08:00.443Z,22.30
2019-05-11T20:10:28.912Z,22.58
2019-05-11T20:12:58.732Z,21.12
2019-05-11T20:15:27.501Z,21.80
2019-05-11T20:17:55.971Z,21.73
2019-05-11T20:20:24.438Z,21.73
2019-05-11T20:22:52.852Z,20.25
2019-05-11T20:25:21.343Z,22.22
2019-05-11T20:27:49.780Z,23.80
2019-05-11T20:30:19.119Z,23.57
2019-05-11T20:32:48.826Z,24.00
2019-05-11T20:35:17.887Z,26.50
2019-05-11T20:37:46.403Z,26.80
2019-05-11T20:40:14.876Z,28.05
2019-05-11T20:42:43.341Z,28.30
2019-05-11T20:45:12.868Z,29.42
2019-05-11T20:47:41.335Z,29.70
2019-05-11T20:50:09.828Z,29.50
2019-05-11T20:52:39.241Z,27.95
2019-05-11T20:55:08.967Z,32.33
2019-05-11T20:57:39.241Z,31.33
2019-05-11T21:00:08.282Z,32.00
2019-05-11T21:02:38.069Z,31.60
2019-05-11T21:05:09.006Z,32.58
2019-05-11T21:07:38.819Z,32.20
2019-05-11T21:12:42.382Z,34.58
2019-05-11T21:15:10.847Z,33.85
2019-05-11T21:17:39.303Z,34.90
2019-05-11T21:20:09.014Z,37.53
2019-05-11T21:22:40.037Z,32.98
2019-05-11T21:27:42.564Z,35.68
2019-05-11T21:30:11.066Z,35.33
2019-05-11T21:32:39.899Z,35.40
2019-05-11T21:35:08.972Z,34.48
2019-05-11T21:37:39.009Z,35.50
2019-05-11T21:40:08.528Z,37.00
2019-05-11T21:42:38.908Z,36.50
2019-05-11T21:45:09.130Z,37.48
2019-05-11T21:47:39.249Z,38.33
2019-05-11T21:50:09.120Z,35.78
2019-05-11T21:52:38.390Z,34.92
2019-05-11T21:55:09.344Z,36.95
2019-05-11T21:57:38.941Z,35.95
2019-05-11T22:00:08.735Z,34.78
2019-05-11T22:02:38.442Z,36.40
2019-05-11T22:05:07.884Z,34.70
2019-05-11T22:10:17.801Z,33.83
2019-05-11T22:12:48.837Z,33.83
2019-05-11T22:15:16.640Z,33.23
2019-05-11T22:18:04.515Z,33.10
2019-05-11T22:20:32.997Z,33.85
2019-05-11T22:23:01.456Z,33.25
2019-05-11T22:25:29.906Z,34.43
2019-05-11T22:28:00.389Z,32.25
2019-05-11T22:30:28.861Z,30.92
2019-05-11T22:32:58.305Z,30.57
2019-05-11T22:35:28.657Z,30.10
2019-05-11T22:37:57.798Z,29.80
2019-05-11T22:40:28.013Z,29.07
2019-05-11T22:42:58.375Z,30.65
2019-05-11T22:45:31.040Z,30.40
2019-05-11T22:47:59.552Z,30.75
2019-05-11T22:50:29.094Z,29.15
2019-05-11T22:52:58.417Z,28.03
2019-05-11T22:55:27.747Z,28.35
2019-05-11T23:00:41.617Z,26.30
2019-05-11T23:05:44.537Z,26.07
2019-05-11T23:08:12.984Z,25.23
2019-05-11T23:10:41.407Z,25.97
2019-05-11T23:13:11.290Z,25.92
2019-05-11T23:15:40.430Z,25.75
2019-05-11T23:18:09.405Z,24.55
2019-05-11T23:20:38.553Z,25.12
2019-05-11T23:23:08.821Z,24.12
2019-05-11T23:25:37.621Z,25.15
2019-05-11T23:28:06.067Z,25.15
2019-05-11T23:30:34.515Z,23.35
2019-05-11T23:33:02.951Z,23.42
2019-05-11T23:35:31.399Z,22.95
2019-05-11T23:37:59.820Z,22.17
2019-05-11T23:40:28.534Z,22.40
2019-05-11T23:42:57.908Z,22.45
2019-05-11T23:45:27.925Z,23.85
2019-05-11T23:47:58.667Z,27.02
2019-05-11T23:50:28.155Z,20.30
2019-05-11T23:53:06.126Z,18.30
2019-05-11T23:55:29.034Z,19.80
2019-05-11T23:57:57.676Z,20.77
